sensor_id;sensor_type;location;lat;lon;timestamp;pressure;altitude;pressure_sealevel;temperature;humidity
35023;BME280;21214;44.912;8.204;2023-03-15T00:01:20;98788.72;;;8.71;69.81
35023;BME280;21214;44.912;8.204;2023-03-15T00:03:47;98796.25;;;8.66;68.43
35023;BME280;21214;44.912;8.204;2023-03-15T00:06:13;98794.94;;;8.52;70.91
35023;BME280;21214;44.912;8.204;2023-03-15T00:08:38;98794.34;;;8.58;68.97
35023;BME280;21214;44.912;8.204;2023-03-15T00:11:05;98784.06;;;8.65;70.56
35023;BME280;21214;44.912;8.204;2023-03-15T00:13:30;98784.72;;;8.67;67.58
35023;BME280;21214;44.912;8.204;2023-03-15T00:15:56;98790.06;;;8.75;66.74
35023;BME280;21214;44.912;8.204;2023-03-15T00:18:22;98789.75;;;8.78;63.46
35023;BME280;21214;44.912;8.204;2023-03-15T00:20:48;98799.41;;;8.87;66.30
35023;BME280;21214;44.912;8.204;2023-03-15T00:23:14;98807.50;;;8.76;69.04
35023;BME280;21214;44.912;8.204;2023-03-15T00:25:42;98813.44;;;8.78;68.40
35023;BME280;21214;44.912;8.204;2023-03-15T00:28:07;98829.16;;;8.70;70.27
35023;BME280;21214;44.912;8.204;2023-03-15T00:30:33;98829.25;;;8.50;72.88
35023;BME280;21214;44.912;8.204;2023-03-15T00:32:58;98819.91;;;8.38;74.16
35023;BME280;21214;44.912;8.204;2023-03-15T00:35:24;98820.22;;;8.35;73.98
35023;BME280;21214;44.912;8.204;2023-03-15T00:37:52;98836.28;;;8.32;74.47
35023;BME280;21214;44.912;8.204;2023-03-15T00:40:20;98839.75;;;8.23;76.20
35023;BME280;21214;44.912;8.204;2023-03-15T00:42:45;98839.38;;;8.18;78.28
35023;BME280;21214;44.912;8.204;2023-03-15T00:45:19;98838.16;;;8.03;80.99
35023;BME280;21214;44.912;8.204;2023-03-15T00:47:49;98834.72;;;8.02;80.63
35023;BME280;21214;44.912;8.204;2023-03-15T00:50:15;98841.66;;;7.94;79.50
35023;BME280;21214;44.912;8.204;2023-03-15T00:52:41;98835.59;;;7.93;78.70
35023;BME280;21214;44.912;8.204;2023-03-15T00:55:10;98842.50;;;7.85;79.69
35023;BME280;21214;44.912;8.204;2023-03-15T00:57:37;98842.94;;;7.80;76.14
35023;BME280;21214;44.912;8.204;2023-03-15T01:00:04;98842.81;;;7.81;73.19
35023;BME280;21214;44.912;8.204;2023-03-15T01:02:31;98841.28;;;7.89;75.06
35023;BME280;21214;44.912;8.204;2023-03-15T01:04:57;98839.72;;;7.96;75.16
35023;BME280;21214;44.912;8.204;2023-03-15T01:07:22;98840.56;;;7.87;73.09
35023;BME280;21214;44.912;8.204;2023-03-15T01:09:48;98833.66;;;7.86;72.51
35023;BME280;21214;44.912;8.204;2023-03-15T01:12:13;98846.84;;;7.76;76.15
35023;BME280;21214;44.912;8.204;2023-03-15T01:14:39;98851.84;;;7.50;80.49
35023;BME280;21214;44.912;8.204;2023-03-15T01:17:04;98859.19;;;7.27;82.93
35023;BME280;21214;44.912;8.204;2023-03-15T01:19:30;98861.13;;;7.35;84.21
35023;BME280;21214;44.912;8.204;2023-03-15T01:21:55;98858.09;;;7.30;84.62
35023;BME280;21214;44.912;8.204;2023-03-15T01:24:21;98866.09;;;7.28;83.89
35023;BME280;21214;44.912;8.204;2023-03-15T01:26:48;98873.44;;;7.34;81.42
35023;BME280;21214;44.912;8.204;2023-03-15T01:29:14;98872.44;;;7.26;80.20
35023;BME280;21214;44.912;8.204;2023-03-15T01:31:42;98871.78;;;7.24;79.60
35023;BME280;21214;44.912;8.204;2023-03-15T01:34:08;98870.13;;;7.23;80.79
35023;BME280;21214;44.912;8.204;2023-03-15T01:36:33;98874.13;;;7.17;79.54
35023;BME280;21214;44.912;8.204;2023-03-15T01:38:59;98871.34;;;7.19;80.15
35023;BME280;21214;44.912;8.204;2023-03-15T01:41:30;98887.94;;;7.29;79.65
35023;BME280;21214;44.912;8.204;2023-03-15T01:43:55;98884.59;;;7.27;78.75
35023;BME280;21214;44.912;8.204;2023-03-15T01:46:22;98875.22;;;7.24;78.96
35023;BME280;21214;44.912;8.204;2023-03-15T01:56:33;98877.91;;;6.65;83.82
35023;BME280;21214;44.912;8.204;2023-03-15T01:59:00;98883.63;;;6.40;85.37
35023;BME280;21214;44.912;8.204;2023-03-15T02:01:27;98882.38;;;6.44;85.84
35023;BME280;21214;44.912;8.204;2023-03-15T02:03:55;98879.78;;;6.44;87.84
35023;BME280;21214;44.912;8.204;2023-03-15T02:06:25;98874.91;;;6.30;89.42
35023;BME280;21214;44.912;8.204;2023-03-15T02:08:54;98882.78;;;6.30;89.40
35023;BME280;21214;44.912;8.204;2023-03-15T02:11:21;98872.31;;;6.39;89.39
35023;BME280;21214;44.912;8.204;2023-03-15T02:13:48;98864.31;;;6.41;89.88
35023;BME280;21214;44.912;8.204;2023-03-15T02:16:14;98873.94;;;6.31;91.80
35023;BME280;21214;44.912;8.204;2023-03-15T02:18:50;98856.56;;;6.30;91.75
35023;BME280;21214;44.912;8.204;2023-03-15T02:21:36;98858.19;;;6.31;91.88
35023;BME280;21214;44.912;8.204;2023-03-15T02:26:52;98854.13;;;6.07;90.46
35023;BME280;21214;44.912;8.204;2023-03-15T02:29:19;98858.69;;;6.05;91.47
35023;BME280;21214;44.912;8.204;2023-03-15T02:31:47;98861.09;;;5.97;91.54
35023;BME280;21214;44.912;8.204;2023-03-15T02:34:12;98858.06;;;5.92;92.52
35023;BME280;21214;44.912;8.204;2023-03-15T02:36:39;98861.28;;;5.85;92.27
35023;BME280;21214;44.912;8.204;2023-03-15T02:39:15;98861.72;;;5.59;92.89
35023;BME280;21214;44.912;8.204;2023-03-15T02:41:42;98865.31;;;5.68;93.82
35023;BME280;21214;44.912;8.204;2023-03-15T02:44:16;98867.38;;;5.44;94.89
35023;BME280;21214;44.912;8.204;2023-03-15T02:46:44;98861.25;;;5.33;93.61
35023;BME280;21214;44.912;8.204;2023-03-15T02:49:11;98861.81;;;5.37;93.36
35023;BME280;21214;44.912;8.204;2023-03-15T02:51:38;98858.84;;;5.42;92.67
35023;BME280;21214;44.912;8.204;2023-03-15T02:54:03;98863.81;;;5.45;92.96
35023;BME280;21214;44.912;8.204;2023-03-15T02:56:28;98869.31;;;5.42;94.19
35023;BME280;21214;44.912;8.204;2023-03-15T02:58:58;98880.84;;;5.39;95.63
35023;BME280;21214;44.912;8.204;2023-03-15T03:01:23;98885.84;;;5.31;96.50
35023;BME280;21214;44.912;8.204;2023-03-15T03:03:49;98879.56;;;5.33;96.08
35023;BME280;21214;44.912;8.204;2023-03-15T03:06:15;98880.44;;;5.44;95.60
35023;BME280;21214;44.912;8.204;2023-03-15T03:08:42;98878.59;;;5.34;95.06
35023;BME280;21214;44.912;8.204;2023-03-15T03:11:12;98883.41;;;5.50;95.23
35023;BME280;21214;44.912;8.204;2023-03-15T03:13:39;98888.91;;;5.47;96.76
35023;BME280;21214;44.912;8.204;2023-03-15T03:16:05;98884.00;;;5.43;97.72
35023;BME280;21214;44.912;8.204;2023-03-15T03:18:30;98877.31;;;5.50;97.60
35023;BME280;21214;44.912;8.204;2023-03-15T03:21:01;98891.41;;;5.38;99.61
35023;BME280;21214;44.912;8.204;2023-03-15T03:23:26;98884.72;;;5.45;98.59
35023;BME280;21214;44.912;8.204;2023-03-15T03:25:53;98888.81;;;5.38;99.47
35023;BME280;21214;44.912;8.204;2023-03-15T03:28:22;98883.06;;;5.44;98.40
35023;BME280;21214;44.912;8.204;2023-03-15T03:30:49;98880.50;;;5.32;98.66
35023;BME280;21214;44.912;8.204;2023-03-15T03:33:15;98883.19;;;5.21;99.63
35023;BME280;21214;44.912;8.204;2023-03-15T03:35:41;98883.44;;;5.18;99.85
35023;BME280;21214;44.912;8.204;2023-03-15T03:38:07;98888.78;;;5.17;98.72
35023;BME280;21214;44.912;8.204;2023-03-15T03:40:37;98882.59;;;5.18;99.01
35023;BME280;21214;44.912;8.204;2023-03-15T03:43:04;98884.84;;;5.22;98.00
35023;BME280;21214;44.912;8.204;2023-03-15T03:45:30;98890.53;;;5.27;96.55
35023;BME280;21214;44.912;8.204;2023-03-15T03:47:57;98890.41;;;5.29;96.78
35023;BME280;21214;44.912;8.204;2023-03-15T03:50:23;98893.81;;;5.41;96.74
35023;BME280;21214;44.912;8.204;2023-03-15T03:52:49;98892.59;;;5.45;97.34
35023;BME280;21214;44.912;8.204;2023-03-15T03:55:20;98895.69;;;5.39;96.91
35023;BME280;21214;44.912;8.204;2023-03-15T03:57:49;98899.97;;;5.40;98.48
35023;BME280;21214;44.912;8.204;2023-03-15T04:00:31;98925.84;;;5.22;98.98
35023;BME280;21214;44.912;8.204;2023-03-15T04:02:57;98933.88;;;5.09;97.05
35023;BME280;21214;44.912;8.204;2023-03-15T04:05:22;98935.03;;;5.16;98.19
35023;BME280;21214;44.912;8.204;2023-03-15T04:07:47;98934.81;;;5.08;99.96
35023;BME280;21214;44.912;8.204;2023-03-15T04:10:15;98922.34;;;5.12;99.55
35023;BME280;21214;44.912;8.204;2023-03-15T04:12:43;98918.16;;;5.09;100.00
35023;BME280;21214;44.912;8.204;2023-03-15T04:15:10;98925.53;;;5.15;100.00
35023;BME280;21214;44.912;8.204;2023-03-15T04:17:37;98925.03;;;5.21;100.00
35023;BME280;21214;44.912;8.204;2023-03-15T04:20:02;98928.09;;;5.26;100.00
35023;BME280;21214;44.912;8.204;2023-03-15T04:22:37;98930.00;;;5.24;100.00
35023;BME280;21214;44.912;8.204;2023-03-15T04:25:18;98944.88;;;5.24;100.00
35023;BME280;21214;44.912;8.204;2023-03-15T04:28:08;98951.09;;;5.12;100.00
35023;BME280;21214;44.912;8.204;2023-03-15T04:30:48;98952.66;;;5.03;100.00
35023;BME280;21214;44.912;8.204;2023-03-15T04:33:34;98965.50;;;5.06;100.00
35023;BME280;21214;44.912;8.204;2023-03-15T04:36:00;98979.78;;;4.91;100.00
35023;BME280;21214;44.912;8.204;2023-03-15T04:38:47;98979.06;;;5.00;100.00
35023;BME280;21214;44.912;8.204;2023-03-15T04:41:27;98977.88;;;4.93;100.00
35023;BME280;21214;44.912;8.204;2023-03-15T04:44:04;98975.00;;;4.96;99.89
35023;BME280;21214;44.912;8.204;2023-03-15T04:46:53;98973.47;;;4.93;99.65
35023;BME280;21214;44.912;8.204;2023-03-15T04:49:27;98981.19;;;4.95;97.85
35023;BME280;21214;44.912;8.204;2023-03-15T04:52:03;98977.88;;;4.93;96.32
35023;BME280;21214;44.912;8.204;2023-03-15T04:54:41;98992.72;;;4.92;96.69
35023;BME280;21214;44.912;8.204;2023-03-15T04:57:27;98987.16;;;4.86;97.96
35023;BME280;21214;44.912;8.204;2023-03-15T05:00:11;98985.72;;;4.93;97.38
35023;BME280;21214;44.912;8.204;2023-03-15T05:03:09;98993.31;;;4.85;98.79
35023;BME280;21214;44.912;8.204;2023-03-15T05:05:40;98993.56;;;4.93;97.34
35023;BME280;21214;44.912;8.204;2023-03-15T05:08:22;99001.44;;;4.82;97.19
35023;BME280;21214;44.912;8.204;2023-03-15T05:11:10;99003.91;;;4.72;96.82
35023;BME280;21214;44.912;8.204;2023-03-15T05:13:55;99005.47;;;4.75;96.40
35023;BME280;21214;44.912;8.204;2023-03-15T05:16:40;99017.34;;;4.79;96.54
35023;BME280;21214;44.912;8.204;2023-03-15T05:19:25;99014.34;;;4.83;96.58
35023;BME280;21214;44.912;8.204;2023-03-15T05:22:14;99013.28;;;4.86;97.15
35023;BME280;21214;44.912;8.204;2023-03-15T05:24:51;99015.06;;;4.85;99.98
35023;BME280;21214;44.912;8.204;2023-03-15T05:27:33;99026.72;;;4.81;100.00
35023;BME280;21214;44.912;8.204;2023-03-15T05:30:18;99034.69;;;4.80;100.00
35023;BME280;21214;44.912;8.204;2023-03-15T05:33:12;99043.84;;;4.85;100.00
35023;BME280;21214;44.912;8.204;2023-03-15T05:36:05;99049.63;;;4.89;100.00
35023;BME280;21214;44.912;8.204;2023-03-15T05:38:56;99056.78;;;4.87;100.00
35023;BME280;21214;44.912;8.204;2023-03-15T05:41:41;99068.19;;;4.86;100.00
35023;BME280;21214;44.912;8.204;2023-03-15T05:44:33;99065.00;;;4.82;100.00
35023;BME280;21214;44.912;8.204;2023-03-15T05:47:19;99069.13;;;4.85;100.00
35023;BME280;21214;44.912;8.204;2023-03-15T05:50:05;99075.09;;;4.76;100.00
35023;BME280;21214;44.912;8.204;2023-03-15T05:53:02;99080.03;;;4.57;100.00
35023;BME280;21214;44.912;8.204;2023-03-15T05:55:37;99094.31;;;4.52;100.00
35023;BME280;21214;44.912;8.204;2023-03-15T05:58:20;99088.31;;;4.39;100.00
35023;BME280;21214;44.912;8.204;2023-03-15T06:01:24;99083.69;;;4.43;100.00
35023;BME280;21214;44.912;8.204;2023-03-15T06:04:15;99089.25;;;4.27;100.00
35023;BME280;21214;44.912;8.204;2023-03-15T06:06:41;99091.00;;;4.16;100.00
35023;BME280;21214;44.912;8.204;2023-03-15T06:09:08;99095.16;;;4.18;100.00
35023;BME280;21214;44.912;8.204;2023-03-15T06:11:34;99092.34;;;4.32;100.00
35023;BME280;21214;44.912;8.204;2023-03-15T06:14:00;99112.56;;;4.41;100.00
35023;BME280;21214;44.912;8.204;2023-03-15T06:16:34;99111.88;;;4.50;100.00
35023;BME280;21214;44.912;8.204;2023-03-15T06:19:01;99118.06;;;4.61;100.00
35023;BME280;21214;44.912;8.204;2023-03-15T06:21:28;99118.34;;;4.80;100.00
35023;BME280;21214;44.912;8.204;2023-03-15T06:23:53;99122.25;;;4.85;100.00
35023;BME280;21214;44.912;8.204;2023-03-15T06:26:20;99145.44;;;5.01;100.00
35023;BME280;21214;44.912;8.204;2023-03-15T06:28:49;99156.16;;;5.09;100.00
35023;BME280;21214;44.912;8.204;2023-03-15T06:31:15;99164.84;;;5.10;100.00
35023;BME280;21214;44.912;8.204;2023-03-15T06:33:48;99160.28;;;4.89;100.00
35023;BME280;21214;44.912;8.204;2023-03-15T06:36:14;99169.88;;;4.78;100.00
35023;BME280;21214;44.912;8.204;2023-03-15T06:38:40;99158.72;;;4.76;100.00
35023;BME280;21214;44.912;8.204;2023-03-15T06:41:06;99163.97;;;4.76;100.00
35023;BME280;21214;44.912;8.204;2023-03-15T06:43:34;99168.00;;;4.91;100.00
35023;BME280;21214;44.912;8.204;2023-03-15T06:46:00;99177.31;;;5.06;100.00
35023;BME280;21214;44.912;8.204;2023-03-15T06:48:26;99177.81;;;5.22;100.00
35023;BME280;21214;44.912;8.204;2023-03-15T06:50:52;99180.41;;;5.33;100.00
35023;BME280;21214;44.912;8.204;2023-03-15T06:53:18;99192.19;;;5.50;99.71
35023;BME280;21214;44.912;8.204;2023-03-15T06:55:44;99190.63;;;5.70;97.96
35023;BME280;21214;44.912;8.204;2023-03-15T06:58:10;99200.63;;;5.87;96.67
35023;BME280;21214;44.912;8.204;2023-03-15T07:00:36;99195.72;;;6.05;96.16
35023;BME280;21214;44.912;8.204;2023-03-15T07:03:01;99200.06;;;6.27;93.91
35023;BME280;21214;44.912;8.204;2023-03-15T07:05:26;99191.25;;;6.48;92.77
35023;BME280;21214;44.912;8.204;2023-03-15T07:07:52;99202.75;;;6.68;91.54
35023;BME280;21214;44.912;8.204;2023-03-15T07:10:17;99206.03;;;6.81;90.33
35023;BME280;21214;44.912;8.204;2023-03-15T07:12:43;99203.06;;;6.95;87.90
35023;BME280;21214;44.912;8.204;2023-03-15T07:15:08;99204.97;;;7.14;87.33
35023;BME280;21214;44.912;8.204;2023-03-15T07:17:34;99206.16;;;7.31;85.76
35023;BME280;21214;44.912;8.204;2023-03-15T07:20:00;99213.91;;;7.53;81.83
35023;BME280;21214;44.912;8.204;2023-03-15T07:22:25;99221.16;;;7.70;79.58
35023;BME280;21214;44.912;8.204;2023-03-15T07:24:51;99210.56;;;7.91;78.19
35023;BME280;21214;44.912;8.204;2023-03-15T07:27:16;99212.53;;;8.08;73.54
35023;BME280;21214;44.912;8.204;2023-03-15T07:29:42;99223.34;;;8.15;66.66
35023;BME280;21214;44.912;8.204;2023-03-15T07:32:07;99220.78;;;8.34;70.80
35023;BME280;21214;44.912;8.204;2023-03-15T07:34:32;99223.00;;;8.48;71.32
35023;BME280;21214;44.912;8.204;2023-03-15T07:36:58;99223.00;;;8.68;71.12
35023;BME280;21214;44.912;8.204;2023-03-15T07:39:23;99217.34;;;8.82;70.99
35023;BME280;21214;44.912;8.204;2023-03-15T07:41:53;99221.47;;;8.94;61.91
35023;BME280;21214;44.912;8.204;2023-03-15T07:44:28;99237.50;;;9.10;59.06
35023;BME280;21214;44.912;8.204;2023-03-15T07:46:53;99236.78;;;9.27;60.07
35023;BME280;21214;44.912;8.204;2023-03-15T07:49:20;99245.22;;;9.40;55.67
35023;BME280;21214;44.912;8.204;2023-03-15T07:51:45;99245.44;;;9.57;52.65
35023;BME280;21214;44.912;8.204;2023-03-15T07:54:11;99252.56;;;9.74;53.37
35023;BME280;21214;44.912;8.204;2023-03-15T07:56:36;99261.38;;;9.92;53.97
35023;BME280;21214;44.912;8.204;2023-03-15T07:59:02;99263.53;;;10.06;55.70
35023;BME280;21214;44.912;8.204;2023-03-15T08:01:27;99262.41;;;10.18;57.22
35023;BME280;21214;44.912;8.204;2023-03-15T08:03:52;99268.72;;;10.25;59.38
35023;BME280;21214;44.912;8.204;2023-03-15T08:06:18;99272.06;;;10.27;57.26
35023;BME280;21214;44.912;8.204;2023-03-15T08:08:43;99275.91;;;10.33;54.59
35023;BME280;21214;44.912;8.204;2023-03-15T08:11:09;99286.09;;;10.46;53.33
35023;BME280;21214;44.912;8.204;2023-03-15T08:13:34;99287.41;;;10.59;49.69
35023;BME280;21214;44.912;8.204;2023-03-15T08:16:00;99288.69;;;10.73;47.75
35023;BME280;21214;44.912;8.204;2023-03-15T08:18:25;99294.34;;;10.78;44.56
35023;BME280;21214;44.912;8.204;2023-03-15T08:20:53;99289.47;;;10.83;43.98
35023;BME280;21214;44.912;8.204;2023-03-15T08:23:18;99307.16;;;10.91;44.15
35023;BME280;21214;44.912;8.204;2023-03-15T08:25:44;99305.72;;;10.96;42.76
35023;BME280;21214;44.912;8.204;2023-03-15T08:28:10;99301.22;;;11.06;42.37
35023;BME280;21214;44.912;8.204;2023-03-15T08:30:35;99302.56;;;11.11;40.73
35023;BME280;21214;44.912;8.204;2023-03-15T08:33:01;99306.94;;;11.20;41.91
35023;BME280;21214;44.912;8.204;2023-03-15T08:35:27;99298.25;;;11.27;40.08
35023;BME280;21214;44.912;8.204;2023-03-15T08:37:53;99297.34;;;11.36;40.66
35023;BME280;21214;44.912;8.204;2023-03-15T08:40:19;99299.50;;;11.41;40.39
35023;BME280;21214;44.912;8.204;2023-03-15T08:42:48;99302.53;;;11.46;40.79
35023;BME280;21214;44.912;8.204;2023-03-15T08:45:14;99301.91;;;11.52;41.30
35023;BME280;21214;44.912;8.204;2023-03-15T08:47:40;99308.53;;;11.56;39.96
35023;BME280;21214;44.912;8.204;2023-03-15T08:50:09;99315.34;;;11.59;38.91
35023;BME280;21214;44.912;8.204;2023-03-15T08:52:35;99319.09;;;11.56;38.45
35023;BME280;21214;44.912;8.204;2023-03-15T08:55:01;99328.41;;;11.60;39.08
35023;BME280;21214;44.912;8.204;2023-03-15T08:57:28;99317.50;;;11.63;36.99
35023;BME280;21214;44.912;8.204;2023-03-15T08:59:54;99334.03;;;11.65;36.37
35023;BME280;21214;44.912;8.204;2023-03-15T09:02:20;99332.06;;;11.67;35.55
35023;BME280;21214;44.912;8.204;2023-03-15T09:04:47;99339.34;;;11.65;35.06
35023;BME280;21214;44.912;8.204;2023-03-15T09:07:13;99327.94;;;11.65;33.75
35023;BME280;21214;44.912;8.204;2023-03-15T09:09:39;99337.59;;;11.74;33.53
35023;BME280;21214;44.912;8.204;2023-03-15T09:12:05;99340.44;;;11.80;32.60
35023;BME280;21214;44.912;8.204;2023-03-15T09:14:30;99339.75;;;11.78;32.18
35023;BME280;21214;44.912;8.204;2023-03-15T09:16:55;99342.78;;;11.83;32.18
35023;BME280;21214;44.912;8.204;2023-03-15T09:19:21;99340.84;;;11.94;32.76
35023;BME280;21214;44.912;8.204;2023-03-15T09:21:46;99335.94;;;11.99;30.53
35023;BME280;21214;44.912;8.204;2023-03-15T09:24:12;99336.97;;;12.06;31.65
35023;BME280;21214;44.912;8.204;2023-03-15T09:26:38;99335.69;;;12.18;31.88
35023;BME280;21214;44.912;8.204;2023-03-15T09:29:03;99348.13;;;12.25;30.64
35023;BME280;21214;44.912;8.204;2023-03-15T09:31:29;99347.63;;;12.22;30.96
35023;BME280;21214;44.912;8.204;2023-03-15T09:33:56;99352.91;;;12.22;30.10
35023;BME280;21214;44.912;8.204;2023-03-15T09:36:21;99352.84;;;12.14;29.50
35023;BME280;21214;44.912;8.204;2023-03-15T09:38:46;99358.81;;;12.16;30.25
35023;BME280;21214;44.912;8.204;2023-03-15T09:48:58;99358.78;;;12.08;27.82
35023;BME280;21214;44.912;8.204;2023-03-15T09:58:46;99362.56;;;12.31;28.61
35023;BME280;21214;44.912;8.204;2023-03-15T10:01:12;99348.50;;;12.39;28.31
35023;BME280;21214;44.912;8.204;2023-03-15T10:03:43;99362.44;;;12.41;28.30
35023;BME280;21214;44.912;8.204;2023-03-15T10:06:15;99371.84;;;12.43;27.99
35023;BME280;21214;44.912;8.204;2023-03-15T10:08:41;99381.78;;;12.41;27.36
35023;BME280;21214;44.912;8.204;2023-03-15T10:11:22;99396.78;;;12.32;26.40
35023;BME280;21214;44.912;8.204;2023-03-15T10:19:05;99401.84;;;12.26;25.21
35023;BME280;21214;44.912;8.204;2023-03-15T10:21:33;99403.88;;;12.32;25.94
35023;BME280;21214;44.912;8.204;2023-03-15T10:24:00;99409.38;;;12.39;26.21
35023;BME280;21214;44.912;8.204;2023-03-15T10:26:28;99402.63;;;12.44;25.94
35023;BME280;21214;44.912;8.204;2023-03-15T10:28:56;99407.63;;;12.55;27.16
35023;BME280;21214;44.912;8.204;2023-03-15T10:31:26;99405.84;;;12.64;27.03
35023;BME280;21214;44.912;8.204;2023-03-15T10:33:55;99403.34;;;12.62;25.81
35023;BME280;21214;44.912;8.204;2023-03-15T10:36:21;99408.00;;;12.60;25.18
35023;BME280;21214;44.912;8.204;2023-03-15T10:38:47;99406.34;;;12.59;25.09
35023;BME280;21214;44.912;8.204;2023-03-15T10:44:03;99410.97;;;12.57;24.76
35023;BME280;21214;44.912;8.204;2023-03-15T10:46:29;99410.31;;;12.63;25.45
35023;BME280;21214;44.912;8.204;2023-03-15T10:51:28;99411.66;;;12.67;25.57
35023;BME280;21214;44.912;8.204;2023-03-15T10:53:57;99405.06;;;12.71;26.21
35023;BME280;21214;44.912;8.204;2023-03-15T10:56:25;99405.06;;;12.80;26.81
35023;BME280;21214;44.912;8.204;2023-03-15T10:58:51;99402.78;;;12.77;25.99
35023;BME280;21214;44.912;8.204;2023-03-15T11:01:27;99400.47;;;12.82;26.45
35023;BME280;21214;44.912;8.204;2023-03-15T11:04:00;99400.50;;;12.90;26.86
35023;BME280;21214;44.912;8.204;2023-03-15T11:06:26;99402.66;;;12.94;25.70
35023;BME280;21214;44.912;8.204;2023-03-15T11:08:53;99403.50;;;12.95;25.27
35023;BME280;21214;44.912;8.204;2023-03-15T11:11:47;99399.50;;;12.99;25.01
35023;BME280;21214;44.912;8.204;2023-03-15T11:14:13;99395.22;;;13.06;25.32
35023;BME280;21214;44.912;8.204;2023-03-15T11:16:38;99405.50;;;13.09;25.91
35023;BME280;21214;44.912;8.204;2023-03-15T11:19:06;99409.03;;;13.18;25.85
35023;BME280;21214;44.912;8.204;2023-03-15T11:21:36;99405.22;;;13.20;26.24
35023;BME280;21214;44.912;8.204;2023-03-15T11:24:03;99397.91;;;13.14;24.35
35023;BME280;21214;44.912;8.204;2023-03-15T11:26:36;99396.41;;;13.11;25.51
35023;BME280;21214;44.912;8.204;2023-03-15T11:29:23;99396.28;;;13.13;25.36
35023;BME280;21214;44.912;8.204;2023-03-15T11:31:49;99395.44;;;13.13;24.74
35023;BME280;21214;44.912;8.204;2023-03-15T11:36:51;99392.47;;;13.32;24.54
35023;BME280;21214;44.912;8.204;2023-03-15T11:39:23;99392.84;;;13.37;24.93
35023;BME280;21214;44.912;8.204;2023-03-15T11:41:55;99390.53;;;13.42;23.64
35023;BME280;21214;44.912;8.204;2023-03-15T11:44:35;99411.91;;;13.48;23.69
35023;BME280;21214;44.912;8.204;2023-03-15T11:47:09;99404.59;;;13.59;23.75
35023;BME280;21214;44.912;8.204;2023-03-15T11:52:01;99391.84;;;13.70;22.98
35023;BME280;21214;44.912;8.204;2023-03-15T11:54:28;99399.28;;;13.83;23.20
35023;BME280;21214;44.912;8.204;2023-03-15T11:59:34;99396.25;;;14.18;22.30
35023;BME280;21214;44.912;8.204;2023-03-15T12:02:33;99391.94;;;14.17;21.55
35023;BME280;21214;44.912;8.204;2023-03-15T12:04:53;99384.91;;;14.32;22.28
35023;BME280;21214;44.912;8.204;2023-03-15T12:09:56;99391.47;;;14.61;21.43
35023;BME280;21214;44.912;8.204;2023-03-15T12:12:45;99373.16;;;14.74;21.43
35023;BME280;21214;44.912;8.204;2023-03-15T12:17:43;99364.47;;;14.88;21.17
35023;BME280;21214;44.912;8.204;2023-03-15T12:22:36;99354.81;;;14.95;21.37
35023;BME280;21214;44.912;8.204;2023-03-15T12:25:10;99351.03;;;15.12;22.04
35023;BME280;21214;44.912;8.204;2023-03-15T12:27:37;99355.97;;;15.15;21.32
35023;BME280;21214;44.912;8.204;2023-03-15T12:30:14;99357.63;;;15.16;21.29
35023;BME280;21214;44.912;8.204;2023-03-15T12:32:44;99358.59;;;15.24;21.04
35023;BME280;21214;44.912;8.204;2023-03-15T12:35:14;99342.28;;;15.27;20.54
35023;BME280;21214;44.912;8.204;2023-03-15T12:37:44;99349.91;;;15.30;20.14
35023;BME280;21214;44.912;8.204;2023-03-15T12:52:54;99327.69;;;15.83;19.82
35023;BME280;21214;44.912;8.204;2023-03-15T12:55:22;99318.78;;;15.90;20.83
35023;BME280;21214;44.912;8.204;2023-03-15T12:57:49;99321.66;;;15.89;21.14
35023;BME280;21214;44.912;8.204;2023-03-15T13:00:17;99319.09;;;15.95;20.19
35023;BME280;21214;44.912;8.204;2023-03-15T13:02:49;99312.09;;;15.94;19.11
35023;BME280;21214;44.912;8.204;2023-03-15T13:15:29;99320.09;;;16.24;20.09
35023;BME280;21214;44.912;8.204;2023-03-15T13:17:58;99315.69;;;16.31;20.15
35023;BME280;21214;44.912;8.204;2023-03-15T13:20:37;99309.22;;;16.40;19.80
35023;BME280;21214;44.912;8.204;2023-03-15T13:28:37;99305.03;;;16.31;18.47
35023;BME280;21214;44.912;8.204;2023-03-15T13:33:47;99292.50;;;16.46;18.77
35023;BME280;21214;44.912;8.204;2023-03-15T13:36:14;99298.88;;;16.60;19.74
35023;BME280;21214;44.912;8.204;2023-03-15T13:38:50;99290.66;;;16.61;19.57
35023;BME280;21214;44.912;8.204;2023-03-15T13:43:44;99293.41;;;16.53;19.42
35023;BME280;21214;44.912;8.204;2023-03-15T13:46:10;99293.41;;;16.53;19.83
35023;BME280;21214;44.912;8.204;2023-03-15T13:48:38;99291.75;;;16.52;19.54
35023;BME280;21214;44.912;8.204;2023-03-15T13:51:26;99287.19;;;16.46;19.33
35023;BME280;21214;44.912;8.204;2023-03-15T13:53:54;99287.47;;;16.66;19.92
35023;BME280;21214;44.912;8.204;2023-03-15T13:56:31;99289.69;;;16.84;19.91
35023;BME280;21214;44.912;8.204;2023-03-15T13:58:58;99296.59;;;16.78;19.13
35023;BME280;21214;44.912;8.204;2023-03-15T14:01:26;99293.97;;;16.63;18.65
35023;BME280;21214;44.912;8.204;2023-03-15T14:03:57;99291.50;;;16.62;19.13
35023;BME280;21214;44.912;8.204;2023-03-15T14:06:24;99293.41;;;16.53;18.95
35023;BME280;21214;44.912;8.204;2023-03-15T14:08:58;99298.59;;;16.40;18.64
35023;BME280;21214;44.912;8.204;2023-03-15T14:16:16;99296.19;;;16.45;19.49
35023;BME280;21214;44.912;8.204;2023-03-15T14:18:53;99292.94;;;16.50;19.33
35023;BME280;21214;44.912;8.204;2023-03-15T14:21:20;99294.81;;;16.34;18.99
35023;BME280;21214;44.912;8.204;2023-03-15T14:23:52;99291.06;;;16.29;18.98
35023;BME280;21214;44.912;8.204;2023-03-15T14:26:27;99297.53;;;16.20;19.43
35023;BME280;21214;44.912;8.204;2023-03-15T14:28:56;99294.56;;;16.15;19.88
35023;BME280;21214;44.912;8.204;2023-03-15T14:31:23;99300.47;;;15.95;19.36
35023;BME280;21214;44.912;8.204;2023-03-15T14:33:53;99302.66;;;15.77;19.15
35023;BME280;21214;44.912;8.204;2023-03-15T14:36:21;99297.66;;;15.74;19.76
35023;BME280;21214;44.912;8.204;2023-03-15T14:38:50;99297.47;;;15.61;19.67
35023;BME280;21214;44.912;8.204;2023-03-15T14:43:42;99307.19;;;15.54;19.79
35023;BME280;21214;44.912;8.204;2023-03-15T14:46:08;99294.59;;;15.48;19.51
35023;BME280;21214;44.912;8.204;2023-03-15T14:48:33;99297.25;;;15.48;19.23
35023;BME280;21214;44.912;8.204;2023-03-15T14:50:59;99296.31;;;15.41;19.35